Feasterville, Pennsylvania
Current Conditions -  °F | °C
As of 11:54 PM on Friday 24 Oct 2014 (Local Time) from KPNE Reporting Station
Clear Clear  
Wind Chill: 54°   Ceiling: Unl
Heat Index: 54°   Visibility: 10mi
Dew Point: 38°   Wind: 8mph
Humidity: 55%   Direction: 280°W
Pressure: 29.89"   Gusts: NA
Location:  40.1496°N, 74.9856°W
Report Text: KPNE 250354Z 28007KT 10SM CLR 12/03 A2989 RMK AO2 SLP121 T01220033
Loading
Personal Weather Stations






























Interactive Weather Map
Tropical Storm Tracking
New forecast layout! Learn more

10-Day Weather Forecast

Advertisements
Track Severe Weather on mobile